sensor_id;sensor_type;location;lat;lon;timestamp;temperature;humidity
26186;DHT22;20067;48.764;9.176;2023-04-03T00:01:16;6.10;84.30
26186;DHT22;20067;48.764;9.176;2023-04-03T00:03:42;6.10;84.30
26186;DHT22;20067;48.764;9.176;2023-04-03T00:06:11;6.00;84.40
26186;DHT22;20067;48.764;9.176;2023-04-03T00:08:38;6.00;83.40
26186;DHT22;20067;48.764;9.176;2023-04-03T00:11:07;5.60;84.80
26186;DHT22;20067;48.764;9.176;2023-04-03T00:13:34;5.50;85.40
26186;DHT22;20067;48.764;9.176;2023-04-03T00:16:00;5.50;85.50
26186;DHT22;20067;48.764;9.176;2023-04-03T00:18:28;5.70;85.20
26186;DHT22;20067;48.764;9.176;2023-04-03T00:21:09;5.80;84.60
26186;DHT22;20067;48.764;9.176;2023-04-03T00:23:37;5.80;84.40
26186;DHT22;20067;48.764;9.176;2023-04-03T00:26:02;5.90;84.50
26186;DHT22;20067;48.764;9.176;2023-04-03T00:28:28;6.00;84.20
26186;DHT22;20067;48.764;9.176;2023-04-03T00:30:54;6.20;83.70
26186;DHT22;20067;48.764;9.176;2023-04-03T00:33:19;6.30;83.10
26186;DHT22;20067;48.764;9.176;2023-04-03T00:35:49;6.10;83.40
26186;DHT22;20067;48.764;9.176;2023-04-03T00:38:18;5.90;84.00
26186;DHT22;20067;48.764;9.176;2023-04-03T00:40:47;5.90;84.30
26186;DHT22;20067;48.764;9.176;2023-04-03T00:43:24;6.00;84.20
26186;DHT22;20067;48.764;9.176;2023-04-03T00:45:53;6.00;84.40
26186;DHT22;20067;48.764;9.176;2023-04-03T00:48:39;6.20;83.40
26186;DHT22;20067;48.764;9.176;2023-04-03T00:51:08;6.10;83.70
26186;DHT22;20067;48.764;9.176;2023-04-03T00:53:42;6.10;83.70
26186;DHT22;20067;48.764;9.176;2023-04-03T00:56:11;5.90;83.80
26186;DHT22;20067;48.764;9.176;2023-04-03T00:58:41;5.80;84.70
26186;DHT22;20067;48.764;9.176;2023-04-03T01:01:12;5.70;84.40
26186;DHT22;20067;48.764;9.176;2023-04-03T01:03:40;5.80;84.40
26186;DHT22;20067;48.764;9.176;2023-04-03T01:06:05;5.80;84.60
26186;DHT22;20067;48.764;9.176;2023-04-03T01:08:31;5.80;84.40
26186;DHT22;20067;48.764;9.176;2023-04-03T01:10:57;5.80;84.60
26186;DHT22;20067;48.764;9.176;2023-04-03T01:13:26;6.00;84.10
26186;DHT22;20067;48.764;9.176;2023-04-03T01:15:55;6.00;84.10
26186;DHT22;20067;48.764;9.176;2023-04-03T01:18:24;6.10;83.40
26186;DHT22;20067;48.764;9.176;2023-04-03T01:26:39;6.00;84.50
26186;DHT22;20067;48.764;9.176;2023-04-03T01:29:05;5.80;84.70
26186;DHT22;20067;48.764;9.176;2023-04-03T01:31:55;5.70;84.60
26186;DHT22;20067;48.764;9.176;2023-04-03T01:34:21;5.50;85.20
26186;DHT22;20067;48.764;9.176;2023-04-03T01:36:47;5.30;85.70
26186;DHT22;20067;48.764;9.176;2023-04-03T01:39:13;5.30;86.20
26186;DHT22;20067;48.764;9.176;2023-04-03T01:41:39;5.50;85.80
26186;DHT22;20067;48.764;9.176;2023-04-03T01:44:05;5.50;85.60
26186;DHT22;20067;48.764;9.176;2023-04-03T01:46:31;5.70;85.30
26186;DHT22;20067;48.764;9.176;2023-04-03T01:48:57;5.70;85.20
26186;DHT22;20067;48.764;9.176;2023-04-03T01:51:22;5.80;84.80
26186;DHT22;20067;48.764;9.176;2023-04-03T01:53:48;5.50;84.80
26186;DHT22;20067;48.764;9.176;2023-04-03T01:56:13;5.60;85.30
26186;DHT22;20067;48.764;9.176;2023-04-03T01:58:39;5.40;85.20
26186;DHT22;20067;48.764;9.176;2023-04-03T02:01:05;5.40;85.90
26186;DHT22;20067;48.764;9.176;2023-04-03T02:03:34;5.50;85.50
26186;DHT22;20067;48.764;9.176;2023-04-03T02:06:08;5.40;85.50
26186;DHT22;20067;48.764;9.176;2023-04-03T02:08:34;5.40;85.20
26186;DHT22;20067;48.764;9.176;2023-04-03T02:10:59;5.40;85.20
26186;DHT22;20067;48.764;9.176;2023-04-03T02:13:25;5.40;85.50
26186;DHT22;20067;48.764;9.176;2023-04-03T02:15:50;5.50;85.00
26186;DHT22;20067;48.764;9.176;2023-04-03T02:18:16;5.50;84.40
26186;DHT22;20067;48.764;9.176;2023-04-03T02:20:46;5.40;84.80
26186;DHT22;20067;48.764;9.176;2023-04-03T02:23:12;5.40;84.80
26186;DHT22;20067;48.764;9.176;2023-04-03T02:25:38;5.50;85.10
26186;DHT22;20067;48.764;9.176;2023-04-03T02:28:06;5.40;84.60
26186;DHT22;20067;48.764;9.176;2023-04-03T02:30:32;5.50;83.80
26186;DHT22;20067;48.764;9.176;2023-04-03T02:32:58;5.40;83.80
26186;DHT22;20067;48.764;9.176;2023-04-03T02:35:23;5.50;84.10
26186;DHT22;20067;48.764;9.176;2023-04-03T02:37:49;5.50;83.80
26186;DHT22;20067;48.764;9.176;2023-04-03T02:40:17;5.50;82.40
26186;DHT22;20067;48.764;9.176;2023-04-03T02:42:43;5.60;82.60
26186;DHT22;20067;48.764;9.176;2023-04-03T02:45:09;5.80;82.20
26186;DHT22;20067;48.764;9.176;2023-04-03T02:47:37;5.70;81.80
26186;DHT22;20067;48.764;9.176;2023-04-03T02:50:03;5.80;82.30
26186;DHT22;20067;48.764;9.176;2023-04-03T02:52:28;5.80;82.50
26186;DHT22;20067;48.764;9.176;2023-04-03T02:54:57;5.80;82.40
26186;DHT22;20067;48.764;9.176;2023-04-03T02:57:23;5.90;82.30
26186;DHT22;20067;48.764;9.176;2023-04-03T02:59:48;5.90;81.90
26186;DHT22;20067;48.764;9.176;2023-04-03T03:02:14;5.70;81.80
26186;DHT22;20067;48.764;9.176;2023-04-03T03:04:40;5.70;82.00
26186;DHT22;20067;48.764;9.176;2023-04-03T03:07:05;5.60;82.30
26186;DHT22;20067;48.764;9.176;2023-04-03T03:09:31;5.70;82.50
26186;DHT22;20067;48.764;9.176;2023-04-03T03:12:00;5.80;81.90
26186;DHT22;20067;48.764;9.176;2023-04-03T03:14:26;5.70;81.50
26186;DHT22;20067;48.764;9.176;2023-04-03T03:16:51;5.80;81.50
26186;DHT22;20067;48.764;9.176;2023-04-03T03:19:17;5.70;81.20
26186;DHT22;20067;48.764;9.176;2023-04-03T03:21:45;5.50;81.60
26186;DHT22;20067;48.764;9.176;2023-04-03T03:24:13;5.40;82.10
26186;DHT22;20067;48.764;9.176;2023-04-03T03:26:41;5.40;82.10
26186;DHT22;20067;48.764;9.176;2023-04-03T03:29:06;5.60;81.60
26186;DHT22;20067;48.764;9.176;2023-04-03T03:31:32;5.60;81.10
26186;DHT22;20067;48.764;9.176;2023-04-03T03:33:57;5.70;81.70
26186;DHT22;20067;48.764;9.176;2023-04-03T03:36:23;5.50;81.60
26186;DHT22;20067;48.764;9.176;2023-04-03T03:38:49;5.50;82.00
26186;DHT22;20067;48.764;9.176;2023-04-03T03:41:14;5.60;81.90
26186;DHT22;20067;48.764;9.176;2023-04-03T03:43:40;5.80;81.80
26186;DHT22;20067;48.764;9.176;2023-04-03T03:46:06;5.70;81.20
26186;DHT22;20067;48.764;9.176;2023-04-03T03:48:34;5.70;81.20
26186;DHT22;20067;48.764;9.176;2023-04-03T03:51:00;5.60;81.40
26186;DHT22;20067;48.764;9.176;2023-04-03T03:53:26;5.50;81.70
26186;DHT22;20067;48.764;9.176;2023-04-03T03:55:51;5.50;81.80
26186;DHT22;20067;48.764;9.176;2023-04-03T03:58:20;5.70;81.80
26186;DHT22;20067;48.764;9.176;2023-04-03T04:00:46;5.70;81.70
26186;DHT22;20067;48.764;9.176;2023-04-03T04:03:11;5.70;81.90
26186;DHT22;20067;48.764;9.176;2023-04-03T04:05:37;5.70;81.60
26186;DHT22;20067;48.764;9.176;2023-04-03T04:08:03;5.90;81.20
26186;DHT22;20067;48.764;9.176;2023-04-03T04:10:28;5.80;79.70
26186;DHT22;20067;48.764;9.176;2023-04-03T04:12:54;5.60;80.40
26186;DHT22;20067;48.764;9.176;2023-04-03T04:15:19;5.50;81.00
26186;DHT22;20067;48.764;9.176;2023-04-03T04:17:47;5.50;81.20
26186;DHT22;20067;48.764;9.176;2023-04-03T04:20:22;5.60;80.90
26186;DHT22;20067;48.764;9.176;2023-04-03T04:22:47;5.50;80.90
26186;DHT22;20067;48.764;9.176;2023-04-03T04:25:13;5.50;80.90
26186;DHT22;20067;48.764;9.176;2023-04-03T04:27:39;5.20;81.10
26186;DHT22;20067;48.764;9.176;2023-04-03T04:30:05;5.20;81.20
26186;DHT22;20067;48.764;9.176;2023-04-03T04:32:31;5.30;81.60
26186;DHT22;20067;48.764;9.176;2023-04-03T04:34:57;5.40;80.90
26186;DHT22;20067;48.764;9.176;2023-04-03T04:37:22;5.40;80.80
26186;DHT22;20067;48.764;9.176;2023-04-03T04:39:48;5.40;80.10
26186;DHT22;20067;48.764;9.176;2023-04-03T04:42:13;5.40;79.50
26186;DHT22;20067;48.764;9.176;2023-04-03T04:44:39;5.30;79.50
26186;DHT22;20067;48.764;9.176;2023-04-03T04:47:05;5.20;79.80
26186;DHT22;20067;48.764;9.176;2023-04-03T04:49:33;5.30;79.80
26186;DHT22;20067;48.764;9.176;2023-04-03T04:51:59;5.50;79.40
26186;DHT22;20067;48.764;9.176;2023-04-03T04:54:25;5.40;79.30
26186;DHT22;20067;48.764;9.176;2023-04-03T04:56:50;5.50;79.80
26186;DHT22;20067;48.764;9.176;2023-04-03T04:59:19;5.70;79.20
26186;DHT22;20067;48.764;9.176;2023-04-03T05:01:44;5.40;78.50
26186;DHT22;20067;48.764;9.176;2023-04-03T05:04:10;5.20;79.40
26186;DHT22;20067;48.764;9.176;2023-04-03T05:06:37;5.50;78.40
26186;DHT22;20067;48.764;9.176;2023-04-03T05:09:03;5.70;77.90
26186;DHT22;20067;48.764;9.176;2023-04-03T05:11:29;5.80;77.50
26186;DHT22;20067;48.764;9.176;2023-04-03T05:13:55;5.70;77.30
26186;DHT22;20067;48.764;9.176;2023-04-03T05:16:21;5.60;77.60
26186;DHT22;20067;48.764;9.176;2023-04-03T05:18:55;5.70;77.10
26186;DHT22;20067;48.764;9.176;2023-04-03T05:21:21;5.70;77.30
26186;DHT22;20067;48.764;9.176;2023-04-03T05:23:48;5.80;77.10
26186;DHT22;20067;48.764;9.176;2023-04-03T05:26:14;6.00;76.50
26186;DHT22;20067;48.764;9.176;2023-04-03T05:28:42;5.80;76.60
26186;DHT22;20067;48.764;9.176;2023-04-03T05:31:08;5.70;77.30
26186;DHT22;20067;48.764;9.176;2023-04-03T05:33:33;5.70;77.40
26186;DHT22;20067;48.764;9.176;2023-04-03T05:36:03;5.80;77.20
26186;DHT22;20067;48.764;9.176;2023-04-03T05:38:28;5.70;77.50
26186;DHT22;20067;48.764;9.176;2023-04-03T05:40:57;5.50;78.10
26186;DHT22;20067;48.764;9.176;2023-04-03T05:43:23;5.60;78.30
26186;DHT22;20067;48.764;9.176;2023-04-03T05:45:48;5.50;78.80
26186;DHT22;20067;48.764;9.176;2023-04-03T05:48:14;5.40;78.90
26186;DHT22;20067;48.764;9.176;2023-04-03T05:50:42;5.30;79.30
26186;DHT22;20067;48.764;9.176;2023-04-03T05:53:17;5.50;79.50
26186;DHT22;20067;48.764;9.176;2023-04-03T05:55:44;5.50;79.40
26186;DHT22;20067;48.764;9.176;2023-04-03T05:58:09;5.40;79.30
26186;DHT22;20067;48.764;9.176;2023-04-03T06:00:35;5.20;79.60
26186;DHT22;20067;48.764;9.176;2023-04-03T06:03:00;5.20;79.80
26186;DHT22;20067;48.764;9.176;2023-04-03T06:05:26;5.20;80.00
26186;DHT22;20067;48.764;9.176;2023-04-03T06:07:52;5.10;80.00
26186;DHT22;20067;48.764;9.176;2023-04-03T06:10:17;5.10;80.20
26186;DHT22;20067;48.764;9.176;2023-04-03T06:12:43;5.20;80.00
26186;DHT22;20067;48.764;9.176;2023-04-03T06:15:09;5.10;79.70
26186;DHT22;20067;48.764;9.176;2023-04-03T06:17:36;5.00;80.30
26186;DHT22;20067;48.764;9.176;2023-04-03T06:20:02;5.20;80.10
26186;DHT22;20067;48.764;9.176;2023-04-03T06:22:32;5.20;80.20
26186;DHT22;20067;48.764;9.176;2023-04-03T06:25:00;5.40;79.80
26186;DHT22;20067;48.764;9.176;2023-04-03T06:27:26;5.60;79.50
26186;DHT22;20067;48.764;9.176;2023-04-03T06:29:52;5.60;79.20
26186;DHT22;20067;48.764;9.176;2023-04-03T06:32:17;5.70;78.80
26186;DHT22;20067;48.764;9.176;2023-04-03T06:34:43;5.80;78.60
26186;DHT22;20067;48.764;9.176;2023-04-03T06:37:20;5.50;78.80
26186;DHT22;20067;48.764;9.176;2023-04-03T06:39:46;5.50;79.60
26186;DHT22;20067;48.764;9.176;2023-04-03T06:42:15;5.60;79.40
26186;DHT22;20067;48.764;9.176;2023-04-03T06:44:41;5.80;79.10
26186;DHT22;20067;48.764;9.176;2023-04-03T06:47:08;5.80;78.80
26186;DHT22;20067;48.764;9.176;2023-04-03T06:49:34;5.70;78.80
26186;DHT22;20067;48.764;9.176;2023-04-03T06:52:02;5.60;79.40
26186;DHT22;20067;48.764;9.176;2023-04-03T06:54:28;5.80;79.60
26186;DHT22;20067;48.764;9.176;2023-04-03T06:56:53;5.90;79.10
26186;DHT22;20067;48.764;9.176;2023-04-03T06:59:19;5.80;79.00
26186;DHT22;20067;48.764;9.176;2023-04-03T07:01:45;5.80;79.30
26186;DHT22;20067;48.764;9.176;2023-04-03T07:04:11;5.80;79.40
26186;DHT22;20067;48.764;9.176;2023-04-03T07:06:36;5.80;79.10
26186;DHT22;20067;48.764;9.176;2023-04-03T07:09:02;5.70;79.50
26186;DHT22;20067;48.764;9.176;2023-04-03T07:11:28;5.60;79.70
26186;DHT22;20067;48.764;9.176;2023-04-03T07:13:53;5.60;79.80
26186;DHT22;20067;48.764;9.176;2023-04-03T07:16:19;5.70;79.80
26186;DHT22;20067;48.764;9.176;2023-04-03T07:18:48;5.80;79.60
26186;DHT22;20067;48.764;9.176;2023-04-03T07:21:14;5.90;79.70
26186;DHT22;20067;48.764;9.176;2023-04-03T07:23:39;5.60;80.00
26186;DHT22;20067;48.764;9.176;2023-04-03T07:26:05;5.50;80.30
26186;DHT22;20067;48.764;9.176;2023-04-03T07:28:32;5.80;79.80
26186;DHT22;20067;48.764;9.176;2023-04-03T07:31:06;5.80;80.20
26186;DHT22;20067;48.764;9.176;2023-04-03T07:33:36;5.90;79.60
26186;DHT22;20067;48.764;9.176;2023-04-03T07:36:05;6.10;79.20
26186;DHT22;20067;48.764;9.176;2023-04-03T07:38:32;6.10;79.40
26186;DHT22;20067;48.764;9.176;2023-04-03T07:40:58;6.30;78.90
26186;DHT22;20067;48.764;9.176;2023-04-03T07:43:24;6.50;78.70
26186;DHT22;20067;48.764;9.176;2023-04-03T07:45:50;6.50;78.30
26186;DHT22;20067;48.764;9.176;2023-04-03T07:48:18;6.40;78.30
26186;DHT22;20067;48.764;9.176;2023-04-03T07:50:44;6.50;78.40
26186;DHT22;20067;48.764;9.176;2023-04-03T07:53:10;6.50;78.30
26186;DHT22;20067;48.764;9.176;2023-04-03T07:55:36;6.40;78.20
26186;DHT22;20067;48.764;9.176;2023-04-03T07:58:09;6.40;78.50
26186;DHT22;20067;48.764;9.176;2023-04-03T08:00:35;6.60;78.50
26186;DHT22;20067;48.764;9.176;2023-04-03T08:03:00;6.30;77.70
26186;DHT22;20067;48.764;9.176;2023-04-03T08:05:26;6.00;78.60
26186;DHT22;20067;48.764;9.176;2023-04-03T08:07:52;6.20;79.30
26186;DHT22;20067;48.764;9.176;2023-04-03T08:10:17;6.20;78.80
26186;DHT22;20067;48.764;9.176;2023-04-03T08:12:46;6.30;78.80
26186;DHT22;20067;48.764;9.176;2023-04-03T08:15:11;6.40;78.60
26186;DHT22;20067;48.764;9.176;2023-04-03T08:17:37;6.40;78.50
26186;DHT22;20067;48.764;9.176;2023-04-03T08:20:04;6.60;78.10
26186;DHT22;20067;48.764;9.176;2023-04-03T08:22:32;6.60;78.00
26186;DHT22;20067;48.764;9.176;2023-04-03T08:24:57;6.80;78.30
26186;DHT22;20067;48.764;9.176;2023-04-03T08:27:23;6.70;78.30
26186;DHT22;20067;48.764;9.176;2023-04-03T08:29:49;6.40;79.10
26186;DHT22;20067;48.764;9.176;2023-04-03T08:32:14;6.60;79.00
26186;DHT22;20067;48.764;9.176;2023-04-03T08:34:41;6.60;78.60
26186;DHT22;20067;48.764;9.176;2023-04-03T08:37:06;6.70;78.80
26186;DHT22;20067;48.764;9.176;2023-04-03T08:39:32;6.90;78.70
26186;DHT22;20067;48.764;9.176;2023-04-03T08:41:59;7.00;78.30
26186;DHT22;20067;48.764;9.176;2023-04-03T08:44:52;6.80;78.40
26186;DHT22;20067;48.764;9.176;2023-04-03T08:47:37;6.90;78.80
26186;DHT22;20067;48.764;9.176;2023-04-03T08:50:11;6.70;78.60
26186;DHT22;20067;48.764;9.176;2023-04-03T08:52:40;6.50;79.20
26186;DHT22;20067;48.764;9.176;2023-04-03T08:57:50;7.10;78.30
26186;DHT22;20067;48.764;9.176;2023-04-03T09:00:23;7.20;77.70
26186;DHT22;20067;48.764;9.176;2023-04-03T09:02:52;7.30;77.70
26186;DHT22;20067;48.764;9.176;2023-04-03T09:10:40;7.40;76.90
26186;DHT22;20067;48.764;9.176;2023-04-03T09:15:38;7.60;76.20
26186;DHT22;20067;48.764;9.176;2023-04-03T09:18:23;7.60;75.70
26186;DHT22;20067;48.764;9.176;2023-04-03T09:24:14;7.80;75.40
26186;DHT22;20067;48.764;9.176;2023-04-03T09:26:48;7.90;75.00
26186;DHT22;20067;48.764;9.176;2023-04-03T09:29:22;7.90;75.30
26186;DHT22;20067;48.764;9.176;2023-04-03T09:31:50;7.70;74.70
26186;DHT22;20067;48.764;9.176;2023-04-03T09:34:22;7.30;75.10
26186;DHT22;20067;48.764;9.176;2023-04-03T09:36:53;7.10;75.60
26186;DHT22;20067;48.764;9.176;2023-04-03T09:39:25;7.20;75.70
26186;DHT22;20067;48.764;9.176;2023-04-03T09:42:05;7.40;76.10
26186;DHT22;20067;48.764;9.176;2023-04-03T09:44:34;7.50;75.20
26186;DHT22;20067;48.764;9.176;2023-04-03T09:49:42;8.10;73.20
26186;DHT22;20067;48.764;9.176;2023-04-03T09:52:25;7.90;73.60
26186;DHT22;20067;48.764;9.176;2023-04-03T09:54:51;7.70;73.90
26186;DHT22;20067;48.764;9.176;2023-04-03T09:57:17;7.40;73.60
26186;DHT22;20067;48.764;9.176;2023-04-03T10:00:00;7.30;74.50
26186;DHT22;20067;48.764;9.176;2023-04-03T10:02:36;7.40;74.10
26186;DHT22;20067;48.764;9.176;2023-04-03T10:05:04;7.40;74.50
26186;DHT22;20067;48.764;9.176;2023-04-03T10:10:10;7.40;74.80
26186;DHT22;20067;48.764;9.176;2023-04-03T10:12:41;7.50;74.60
26186;DHT22;20067;48.764;9.176;2023-04-03T10:15:15;7.40;75.40
26186;DHT22;20067;48.764;9.176;2023-04-03T10:18:03;7.20;74.70
26186;DHT22;20067;48.764;9.176;2023-04-03T10:20:34;7.10;74.70
26186;DHT22;20067;48.764;9.176;2023-04-03T10:31:36;7.10;74.60
26186;DHT22;20067;48.764;9.176;2023-04-03T10:34:06;7.30;74.40
26186;DHT22;20067;48.764;9.176;2023-04-03T10:39:39;7.60;73.60
26186;DHT22;20067;48.764;9.176;2023-04-03T10:42:22;7.50;73.30
26186;DHT22;20067;48.764;9.176;2023-04-03T10:45:15;7.30;73.80
26186;DHT22;20067;48.764;9.176;2023-04-03T10:58:40;7.10;75.10
26186;DHT22;20067;48.764;9.176;2023-04-03T11:01:10;7.20;74.30
26186;DHT22;20067;48.764;9.176;2023-04-03T11:03:53;7.50;73.50
26186;DHT22;20067;48.764;9.176;2023-04-03T11:06:24;7.50;73.20
26186;DHT22;20067;48.764;9.176;2023-04-03T11:09:05;7.60;72.90
26186;DHT22;20067;48.764;9.176;2023-04-03T11:11:35;7.60;72.50
26186;DHT22;20067;48.764;9.176;2023-04-03T11:16:58;7.80;71.30
26186;DHT22;20067;48.764;9.176;2023-04-03T11:19:58;7.70;70.50
26186;DHT22;20067;48.764;9.176;2023-04-03T11:25:38;7.80;69.70
26186;DHT22;20067;48.764;9.176;2023-04-03T11:28:09;7.80;69.60
26186;DHT22;20067;48.764;9.176;2023-04-03T11:38:46;7.50;69.60
26186;DHT22;20067;48.764;9.176;2023-04-03T11:41:13;7.50;70.00
26186;DHT22;20067;48.764;9.176;2023-04-03T11:44:13;7.50;70.40
26186;DHT22;20067;48.764;9.176;2023-04-03T11:46:56;7.60;70.40
26186;DHT22;20067;48.764;9.176;2023-04-03T11:52:55;7.30;71.20
26186;DHT22;20067;48.764;9.176;2023-04-03T12:08:45;7.80;68.90
26186;DHT22;20067;48.764;9.176;2023-04-03T12:26:48;7.30;69.80
26186;DHT22;20067;48.764;9.176;2023-04-03T12:48:24;8.00;68.70
26186;DHT22;20067;48.764;9.176;2023-04-03T12:50:50;7.90;68.40
26186;DHT22;20067;48.764;9.176;2023-04-03T12:53:21;7.80;68.30
26186;DHT22;20067;48.764;9.176;2023-04-03T12:55:55;7.90;67.00
26186;DHT22;20067;48.764;9.176;2023-04-03T12:58:23;7.80;66.40
26186;DHT22;20067;48.764;9.176;2023-04-03T13:01:03;7.70;68.00
26186;DHT22;20067;48.764;9.176;2023-04-03T13:03:29;7.90;67.50
26186;DHT22;20067;48.764;9.176;2023-04-03T13:06:01;7.70;67.70
26186;DHT22;20067;48.764;9.176;2023-04-03T13:08:27;8.10;67.70
26186;DHT22;20067;48.764;9.176;2023-04-03T13:11:06;8.10;67.50
26186;DHT22;20067;48.764;9.176;2023-04-03T13:13:32;8.40;67.80
26186;DHT22;20067;48.764;9.176;2023-04-03T13:16:08;8.70;65.50
26186;DHT22;20067;48.764;9.176;2023-04-03T13:18:36;9.30;64.50
26186;DHT22;20067;48.764;9.176;2023-04-03T13:21:16;9.20;64.60
26186;DHT22;20067;48.764;9.176;2023-04-03T13:23:49;9.30;62.80
26186;DHT22;20067;48.764;9.176;2023-04-03T13:26:17;9.50;62.80
26186;DHT22;20067;48.764;9.176;2023-04-03T13:28:45;9.60;62.80
26186;DHT22;20067;48.764;9.176;2023-04-03T13:34:03;9.30;62.40
26186;DHT22;20067;48.764;9.176;2023-04-03T13:36:34;9.20;62.40
26186;DHT22;20067;48.764;9.176;2023-04-03T13:39:04;9.30;62.60
26186;DHT22;20067;48.764;9.176;2023-04-03T13:41:36;9.40;62.60
26186;DHT22;20067;48.764;9.176;2023-04-03T13:46:54;9.10;63.30
26186;DHT22;20067;48.764;9.176;2023-04-03T13:49:31;9.10;62.70
26186;DHT22;20067;48.764;9.176;2023-04-03T13:51:58;9.10;62.00
26186;DHT22;20067;48.764;9.176;2023-04-03T13:54:34;9.10;62.50
26186;DHT22;20067;48.764;9.176;2023-04-03T13:57:01;9.40;62.30
26186;DHT22;20067;48.764;9.176;2023-04-03T13:59:31;9.40;62.20
26186;DHT22;20067;48.764;9.176;2023-04-03T14:07:12;9.10;61.80
26186;DHT22;20067;48.764;9.176;2023-04-03T14:09:37;9.10;62.20
26186;DHT22;20067;48.764;9.176;2023-04-03T14:12:11;9.00;62.00
26186;DHT22;20067;48.764;9.176;2023-04-03T14:14:38;8.60;62.90
26186;DHT22;20067;48.764;9.176;2023-04-03T14:17:14;8.80;63.60
26186;DHT22;20067;48.764;9.176;2023-04-03T14:19:40;8.80;62.90
26186;DHT22;20067;48.764;9.176;2023-04-03T14:24:48;8.80;63.30
26186;DHT22;20067;48.764;9.176;2023-04-03T14:27:20;8.80;63.10
26186;DHT22;20067;48.764;9.176;2023-04-03T14:29:48;8.60;63.50
26186;DHT22;20067;48.764;9.176;2023-04-03T14:32:16;8.50;63.20
26186;DHT22;20067;48.764;9.176;2023-04-03T14:34:43;8.40;63.40
26186;DHT22;20067;48.764;9.176;2023-04-03T14:37:15;8.50;63.80
26186;DHT22;20067;48.764;9.176;2023-04-03T14:39:42;8.40;64.00
26186;DHT22;20067;48.764;9.176;2023-04-03T14:42:13;8.30;63.50
26186;DHT22;20067;48.764;9.176;2023-04-03T14:44:42;8.50;63.90
26186;DHT22;20067;48.764;9.176;2023-04-03T14:47:17;9.10;61.80
26186;DHT22;20067;48.764;9.176;2023-04-03T14:49:44;9.50;61.20
26186;DHT22;20067;48.764;9.176;2023-04-03T14:52:25;9.50;60.50
26186;DHT22;20067;48.764;9.176;2023-04-03T14:54:52;9.50;60.20
26186;DHT22;20067;48.764;9.176;2023-04-03T14:57:18;9.30;60.20
26186;DHT22;20067;48.764;9.176;2023-04-03T14:59:45;8.80;60.90
26186;DHT22;20067;48.764;9.176;2023-04-03T15:02:32;8.60;61.60
26186;DHT22;20067;48.764;9.176;2023-04-03T15:04:59;8.80;61.80
26186;DHT22;20067;48.764;9.176;2023-04-03T15:07:28;8.30;62.10
26186;DHT22;20067;48.764;9.176;2023-04-03T15:09:54;8.10;63.00
26186;DHT22;20067;48.764;9.176;2023-04-03T15:12:22;8.40;62.90
26186;DHT22;20067;48.764;9.176;2023-04-03T15:14:48;8.60;62.10
26186;DHT22;20067;48.764;9.176;2023-04-03T15:17:21;8.60;62.20
26186;DHT22;20067;48.764;9.176;2023-04-03T15:19:48;8.50;61.70
26186;DHT22;20067;48.764;9.176;2023-04-03T15:22:18;8.60;61.40
26186;DHT22;20067;48.764;9.176;2023-04-03T15:24:44;8.50;61.40
26186;DHT22;20067;48.764;9.176;2023-04-03T15:27:11;8.50;61.40
26186;DHT22;20067;48.764;9.176;2023-04-03T15:29:39;8.60;61.10
26186;DHT22;20067;48.764;9.176;2023-04-03T15:32:05;8.60;61.40
26186;DHT22;20067;48.764;9.176;2023-04-03T15:34:31;8.80;60.90
26186;DHT22;20067;48.764;9.176;2023-04-03T15:36:56;8.50;59.80
26186;DHT22;20067;48.764;9.176;2023-04-03T15:39:22;8.40;59.90
26186;DHT22;20067;48.764;9.176;2023-04-03T15:41:49;8.40;60.30
26186;DHT22;20067;48.764;9.176;2023-04-03T15:44:17;8.50;60.90
26186;DHT22;20067;48.764;9.176;2023-04-03T15:46:48;8.20;59.90
26186;DHT22;20067;48.764;9.176;2023-04-03T15:49:17;7.90;60.90
26186;DHT22;20067;48.764;9.176;2023-04-03T15:51:43;7.80;61.60
26186;DHT22;20067;48.764;9.176;2023-04-03T15:54:09;8.00;62.10
26186;DHT22;20067;48.764;9.176;2023-04-03T15:56:34;8.00;61.90
26186;DHT22;20067;48.764;9.176;2023-04-03T15:59:02;8.10;61.90
26186;DHT22;20067;48.764;9.176;2023-04-03T16:01:29;8.50;62.00
26186;DHT22;20067;48.764;9.176;2023-04-03T16:03:54;9.00;60.00
26186;DHT22;20067;48.764;9.176;2023-04-03T16:06:20;9.40;58.90
26186;DHT22;20067;48.764;9.176;2023-04-03T16:08:47;10.00;57.90
26186;DHT22;20067;48.764;9.176;2023-04-03T16:11:13;9.70;57.30
26186;DHT22;20067;48.764;9.176;2023-04-03T16:13:39;9.50;57.40
26186;DHT22;20067;48.764;9.176;2023-04-03T16:16:05;9.40;58.00
26186;DHT22;20067;48.764;9.176;2023-04-03T16:18:31;9.60;57.80
26186;DHT22;20067;48.764;9.176;2023-04-03T16:20:56;9.70;57.40
26186;DHT22;20067;48.764;9.176;2023-04-03T16:23:23;9.20;57.70
26186;DHT22;20067;48.764;9.176;2023-04-03T16:25:49;9.00;58.00
26186;DHT22;20067;48.764;9.176;2023-04-03T16:28:16;9.10;57.40
26186;DHT22;20067;48.764;9.176;2023-04-03T16:30:44;8.90;57.70
26186;DHT22;20067;48.764;9.176;2023-04-03T16:33:10;8.70;58.20
26186;DHT22;20067;48.764;9.176;2023-04-03T16:35:36;8.40;58.20
26186;DHT22;20067;48.764;9.176;2023-04-03T16:38:02;8.30;58.70
26186;DHT22;20067;48.764;9.176;2023-04-03T16:40:29;8.40;58.40
26186;DHT22;20067;48.764;9.176;2023-04-03T16:42:55;8.30;58.90
26186;DHT22;20067;48.764;9.176;2023-04-03T16:45:21;8.40;58.90
26186;DHT22;20067;48.764;9.176;2023-04-03T16:47:46;8.40;58.30
26186;DHT22;20067;48.764;9.176;2023-04-03T16:50:12;8.20;58.60
26186;DHT22;20067;48.764;9.176;2023-04-03T16:52:38;8.20;58.90
26186;DHT22;20067;48.764;9.176;2023-04-03T16:55:04;8.20;59.20
26186;DHT22;20067;48.764;9.176;2023-04-03T16:57:33;8.00;59.50
26186;DHT22;20067;48.764;9.176;2023-04-03T16:59:58;8.00;59.90
26186;DHT22;20067;48.764;9.176;2023-04-03T17:02:24;8.20;60.30
26186;DHT22;20067;48.764;9.176;2023-04-03T17:04:51;8.00;60.80
26186;DHT22;20067;48.764;9.176;2023-04-03T17:07:18;7.90;61.10
26186;DHT22;20067;48.764;9.176;2023-04-03T17:09:44;8.00;60.80
26186;DHT22;20067;48.764;9.176;2023-04-03T17:12:10;8.20;60.90
26186;DHT22;20067;48.764;9.176;2023-04-03T17:14:36;8.30;60.70
26186;DHT22;20067;48.764;9.176;2023-04-03T17:17:03;8.40;61.40
26186;DHT22;20067;48.764;9.176;2023-04-03T17:19:30;8.10;60.40
26186;DHT22;20067;48.764;9.176;2023-04-03T17:21:56;8.00;60.70
26186;DHT22;20067;48.764;9.176;2023-04-03T17:24:22;8.20;61.40
26186;DHT22;20067;48.764;9.176;2023-04-03T17:26:48;8.10;60.80
26186;DHT22;20067;48.764;9.176;2023-04-03T17:29:13;8.10;60.50
26186;DHT22;20067;48.764;9.176;2023-04-03T17:31:39;8.20;61.10
26186;DHT22;20067;48.764;9.176;2023-04-03T17:34:06;8.00;62.60
26186;DHT22;20067;48.764;9.176;2023-04-03T17:36:33;8.10;61.30
26186;DHT22;20067;48.764;9.176;2023-04-03T17:38:59;8.20;61.10
26186;DHT22;20067;48.764;9.176;2023-04-03T17:41:25;8.10;60.80
26186;DHT22;20067;48.764;9.176;2023-04-03T17:43:51;8.00;61.40
26186;DHT22;20067;48.764;9.176;2023-04-03T17:46:20;7.80;61.70
26186;DHT22;20067;48.764;9.176;2023-04-03T17:48:46;7.80;61.40
26186;DHT22;20067;48.764;9.176;2023-04-03T17:51:14;7.80;62.00
26186;DHT22;20067;48.764;9.176;2023-04-03T17:53:43;7.70;61.60
26186;DHT22;20067;48.764;9.176;2023-04-03T17:56:21;7.50;62.10
26186;DHT22;20067;48.764;9.176;2023-04-03T17:58:47;7.50;62.20